createdAt,value
2023-06-05T00:00:12.232Z,1188.00
2023-06-05T00:01:12.243Z,1174.00
2023-06-05T00:02:12.326Z,1181.00
2023-06-05T00:03:12.257Z,1182.00
2023-06-05T00:04:12.376Z,1175.00
2023-06-05T00:05:12.207Z,1172.00
2023-06-05T00:06:12.211Z,1167.00
2023-06-05T00:07:12.179Z,1168.00
2023-06-05T00:08:12.185Z,1161.00
2023-06-05T00:09:12.175Z,1176.00
2023-06-05T00:10:12.151Z,1162.00
2023-06-05T00:11:12.182Z,1171.00
2023-06-05T00:12:12.156Z,1167.00
2023-06-05T00:13:12.140Z,1159.00
2023-06-05T00:14:12.148Z,1157.00
2023-06-05T00:15:12.131Z,1146.00
2023-06-05T00:16:12.184Z,1159.00
2023-06-05T00:17:12.103Z,1149.00
2023-06-05T00:18:12.197Z,1148.00
2023-06-05T00:19:12.291Z,1149.00
2023-06-05T00:20:12.089Z,1160.00
2023-06-05T00:21:12.132Z,1180.00
2023-06-05T00:22:12.085Z,1185.00
2023-06-05T00:23:12.079Z,1198.00
2023-06-05T00:24:12.072Z,1197.00
2023-06-05T00:25:12.134Z,1208.00
2023-06-05T00:26:12.069Z,1198.00
2023-06-05T00:27:12.046Z,1193.00
2023-06-05T00:28:12.049Z,1192.00
2023-06-05T00:29:12.062Z,1188.00
2023-06-05T00:30:12.024Z,1189.00
2023-06-05T00:31:12.123Z,1184.00
2023-06-05T00:32:12.003Z,1183.00
2023-06-05T00:33:12.031Z,1173.00
2023-06-05T00:34:12.004Z,1165.00
2023-06-05T00:35:11.989Z,1160.00
2023-06-05T00:36:11.989Z,1157.00
2023-06-05T00:37:11.972Z,1152.00
2023-06-05T00:38:11.958Z,1148.00
2023-06-05T00:39:11.967Z,1148.00
2023-06-05T00:40:11.954Z,1153.00
2023-06-05T00:41:11.979Z,1181.00
2023-06-05T00:42:11.956Z,1173.00
2023-06-05T00:43:11.946Z,1169.00
2023-06-05T00:44:11.921Z,1160.00
2023-06-05T00:45:11.935Z,1147.00
2023-06-05T00:46:12.009Z,1133.00
2023-06-05T00:47:11.919Z,1140.00
2023-06-05T00:48:11.952Z,1137.00
2023-06-05T00:49:11.910Z,1145.00
2023-06-05T00:50:11.890Z,1155.00
2023-06-05T00:51:11.928Z,1148.00
2023-06-05T00:52:11.869Z,1149.00
2023-06-05T00:53:11.872Z,1146.00
2023-06-05T00:54:11.941Z,1137.00
2023-06-05T00:55:11.858Z,1135.00
2023-06-05T00:56:11.842Z,1134.00
2023-06-05T00:57:11.857Z,1117.00
2023-06-05T00:58:11.844Z,1120.00
2023-06-05T00:59:11.845Z,1123.00
2023-06-05T01:00:11.822Z,1103.00
2023-06-05T01:01:11.959Z,1100.00
2023-06-05T01:02:11.861Z,1098.00
2023-06-05T01:03:11.958Z,1097.00
2023-06-05T01:04:11.802Z,1090.00
2023-06-05T01:05:11.798Z,1074.00
2023-06-05T01:06:11.803Z,1080.00
2023-06-05T01:07:11.804Z,1070.00
2023-06-05T01:08:11.777Z,1070.00
2023-06-05T01:09:11.800Z,1082.00
2023-06-05T01:10:11.789Z,1091.00
2023-06-05T01:11:11.764Z,1108.00
2023-06-05T01:12:11.754Z,1131.00
2023-06-05T01:13:11.753Z,1134.00
2023-06-05T01:14:11.739Z,1145.00
2023-06-05T01:15:11.746Z,1143.00
2023-06-05T01:16:11.758Z,1137.00
2023-06-05T01:17:11.839Z,1121.00
2023-06-05T01:18:11.721Z,1122.00
2023-06-05T01:19:11.700Z,1122.00
2023-06-05T01:20:11.693Z,1134.00
2023-06-05T01:21:11.690Z,1140.00
2023-06-05T01:22:11.689Z,1139.00
2023-06-05T01:23:11.674Z,1138.00
2023-06-05T01:24:11.670Z,1136.00
2023-06-05T01:25:11.660Z,1134.00
2023-06-05T01:26:11.661Z,1128.00
2023-06-05T01:27:11.665Z,1115.00
2023-06-05T01:28:11.647Z,1131.00
2023-06-05T01:29:11.653Z,1130.00
2023-06-05T01:30:11.631Z,1141.00
2023-06-05T01:31:11.792Z,1145.00
2023-06-05T01:32:11.615Z,1137.00
2023-06-05T01:33:11.666Z,1132.00
2023-06-05T01:34:11.598Z,1148.00
2023-06-05T01:35:11.610Z,1142.00
2023-06-05T01:36:11.581Z,1142.00
2023-06-05T01:37:11.588Z,1149.00
2023-06-05T01:38:11.575Z,1141.00
2023-06-05T01:39:11.566Z,1136.00
2023-06-05T01:40:11.571Z,1130.00
2023-06-05T01:41:11.586Z,1137.00
2023-06-05T01:42:11.556Z,1133.00
2023-06-05T01:43:11.548Z,1135.00
2023-06-05T01:44:11.529Z,1140.00
2023-06-05T01:45:11.534Z,1147.00
2023-06-05T01:46:11.523Z,1147.00
2023-06-05T01:47:11.521Z,1151.00
2023-06-05T01:48:11.524Z,1165.00
2023-06-05T01:49:11.510Z,1160.00
2023-06-05T01:50:11.486Z,1159.00
2023-06-05T01:51:11.488Z,1146.00
2023-06-05T01:52:11.485Z,1146.00
2023-06-05T01:53:11.479Z,1146.00
2023-06-05T01:54:11.478Z,1142.00
2023-06-05T01:55:11.461Z,1145.00
2023-06-05T01:56:11.460Z,1142.00
2023-06-05T01:57:11.453Z,1145.00
2023-06-05T01:58:11.441Z,1147.00
2023-06-05T01:59:11.420Z,1142.00
2023-06-05T02:00:11.437Z,1137.00
2023-06-05T02:01:11.424Z,1141.00
2023-06-05T02:02:11.443Z,1130.00
2023-06-05T02:03:11.533Z,1137.00
2023-06-05T02:04:11.487Z,1133.00
2023-06-05T02:05:11.407Z,1129.00
2023-06-05T02:06:11.390Z,1131.00
2023-06-05T02:07:11.374Z,1128.00
2023-06-05T02:08:11.373Z,1121.00
2023-06-05T02:09:11.376Z,1119.00
2023-06-05T02:10:11.374Z,1117.00
2023-06-05T02:11:11.455Z,1124.00
2023-06-05T02:12:11.390Z,1120.00
2023-06-05T02:13:11.340Z,1121.00
2023-06-05T02:14:11.319Z,1118.00
2023-06-05T02:15:11.323Z,1110.00
2023-06-05T02:16:11.327Z,1105.00
2023-06-05T02:17:11.299Z,1102.00
2023-06-05T02:18:11.297Z,1110.00
2023-06-05T02:19:11.299Z,1108.00
2023-06-05T02:20:11.292Z,1101.00
2023-06-05T02:21:11.360Z,1103.00
2023-06-05T02:22:11.265Z,1104.00
2023-06-05T02:23:11.250Z,1109.00
2023-06-05T02:24:11.300Z,1109.00
2023-06-05T02:25:11.252Z,1106.00
2023-06-05T02:26:11.251Z,1104.00
2023-06-05T02:27:11.248Z,1101.00
2023-06-05T02:28:11.231Z,1106.00
2023-06-05T02:29:11.222Z,1106.00
2023-06-05T02:30:11.214Z,1117.00
2023-06-05T02:31:11.515Z,1110.00
2023-06-05T02:32:11.211Z,1116.00
2023-06-05T02:33:11.179Z,1112.00
2023-06-05T02:34:11.203Z,1111.00
2023-06-05T02:35:11.168Z,1113.00
2023-06-05T02:36:11.171Z,1111.00
2023-06-05T02:37:11.175Z,1105.00
2023-06-05T02:38:11.151Z,1103.00
2023-06-05T02:39:11.143Z,1095.00
2023-06-05T02:40:11.137Z,1100.00
2023-06-05T02:41:11.212Z,1100.00
2023-06-05T02:42:11.129Z,1101.00
2023-06-05T02:43:11.114Z,1101.00
2023-06-05T02:44:11.108Z,1100.00
2023-06-05T02:45:11.119Z,1098.00
2023-06-05T02:46:11.203Z,1096.00
2023-06-05T02:47:11.144Z,1080.00
2023-06-05T02:48:11.085Z,1081.00
2023-06-05T02:49:11.096Z,1082.00
2023-06-05T02:50:11.072Z,1098.00
2023-06-05T02:51:11.055Z,1089.00
2023-06-05T02:52:11.057Z,1087.00
2023-06-05T02:53:11.044Z,1088.00
2023-06-05T02:54:11.667Z,1075.00
2023-06-05T02:55:11.041Z,1077.00
2023-06-05T02:56:11.035Z,1081.00
2023-06-05T02:57:11.045Z,1092.00
2023-06-05T02:58:11.001Z,1099.00
2023-06-05T02:59:10.995Z,1092.00
2023-06-05T03:00:11.009Z,1079.00
2023-06-05T03:01:11.178Z,1067.00
2023-06-05T03:02:10.996Z,1072.00
2023-06-05T03:03:11.046Z,1066.00
2023-06-05T03:04:10.979Z,1061.00
2023-06-05T03:05:10.963Z,1074.00
2023-06-05T03:06:10.955Z,1087.00
2023-06-05T03:07:10.953Z,1090.00
2023-06-05T03:08:10.965Z,1087.00
2023-06-05T03:09:10.949Z,1074.00
2023-06-05T03:10:10.921Z,1077.00
2023-06-05T03:11:11.266Z,1069.00
2023-06-05T03:12:10.937Z,1072.00
2023-06-05T03:13:10.914Z,1089.00
2023-06-05T03:14:10.955Z,1091.00
2023-06-05T03:15:10.925Z,1079.00
2023-06-05T03:16:10.990Z,1080.00
2023-06-05T03:17:10.947Z,1094.00
2023-06-05T03:18:10.996Z,1105.00
2023-06-05T03:19:10.940Z,1115.00
2023-06-05T03:20:11.022Z,1110.00
2023-06-05T03:21:11.017Z,1116.00
2023-06-05T03:22:10.975Z,1110.00
2023-06-05T03:23:10.987Z,1112.00
2023-06-05T03:24:10.996Z,1108.00
2023-06-05T03:25:11.004Z,1106.00
2023-06-05T03:26:11.023Z,1113.00
2023-06-05T03:27:11.000Z,1123.00
2023-06-05T03:28:11.011Z,1126.00
2023-06-05T03:29:11.029Z,1137.00
2023-06-05T03:30:11.033Z,1141.00
2023-06-05T03:31:11.037Z,1157.00
2023-06-05T03:32:11.050Z,1166.00
2023-06-05T03:33:11.162Z,1173.00
2023-06-05T03:34:11.088Z,1173.00
2023-06-05T03:35:11.053Z,1171.00
2023-06-05T03:36:11.066Z,1174.00
2023-06-05T03:37:11.072Z,1169.00
2023-06-05T03:38:11.097Z,1172.00
2023-06-05T03:39:11.118Z,1171.00
2023-06-05T03:40:11.201Z,1179.00
2023-06-05T03:41:11.311Z,1174.00
2023-06-05T03:42:11.135Z,1179.00
2023-06-05T03:43:11.162Z,1183.00
2023-06-05T03:44:11.154Z,1169.00
2023-06-05T03:45:11.161Z,1178.00
2023-06-05T03:46:11.211Z,1184.00
2023-06-05T03:47:11.204Z,1187.00
2023-06-05T03:48:11.201Z,1186.00
2023-06-05T03:49:11.225Z,1188.00
2023-06-05T03:50:11.239Z,1190.00
2023-06-05T03:51:11.345Z,1195.00
2023-06-05T03:52:11.251Z,1188.00
2023-06-05T03:53:11.265Z,1188.00
2023-06-05T03:54:11.301Z,1186.00
2023-06-05T03:55:11.280Z,1193.00
2023-06-05T03:56:11.304Z,1195.00
2023-06-05T03:57:11.303Z,1203.00
2023-06-05T03:58:11.309Z,1207.00
2023-06-05T03:59:11.322Z,1199.00
2023-06-05T04:00:11.428Z,1201.00
2023-06-05T04:01:11.529Z,1203.00
2023-06-05T04:02:11.461Z,1208.00
2023-06-05T04:03:11.457Z,1209.00
2023-06-05T04:04:11.425Z,1209.00
2023-06-05T04:05:11.397Z,1210.00
2023-06-05T04:06:11.428Z,1200.00
2023-06-05T04:07:11.453Z,1197.00
2023-06-05T04:08:11.451Z,1198.00
2023-06-05T04:09:11.462Z,1195.00
2023-06-05T04:10:11.486Z,1198.00
2023-06-05T04:11:11.490Z,1200.00
2023-06-05T04:12:11.523Z,1199.00
2023-06-05T04:13:11.531Z,1199.00
2023-06-05T04:14:11.527Z,1195.00
2023-06-05T04:15:11.621Z,1188.00
2023-06-05T04:16:11.596Z,1193.00
2023-06-05T04:17:11.645Z,1193.00
2023-06-05T04:18:11.612Z,1195.00
2023-06-05T04:19:11.597Z,1189.00
2023-06-05T04:20:11.642Z,1188.00
2023-06-05T04:21:11.621Z,1183.00
2023-06-05T04:22:11.650Z,1189.00
2023-06-05T04:23:11.660Z,1189.00
2023-06-05T04:24:11.774Z,1185.00
2023-06-05T04:25:11.706Z,1188.00
2023-06-05T04:26:11.716Z,1188.00
2023-06-05T04:27:11.740Z,1186.00
2023-06-05T04:28:11.763Z,1197.00
2023-06-05T04:29:11.763Z,1193.00
2023-06-05T04:30:11.785Z,1189.00
2023-06-05T04:31:11.998Z,1200.00
2023-06-05T04:32:11.820Z,1195.00
2023-06-05T04:33:11.834Z,1205.00
2023-06-05T04:34:11.847Z,1210.00
2023-06-05T04:35:11.857Z,1215.00
2023-06-05T04:36:11.862Z,1222.00
2023-06-05T04:37:11.897Z,1235.00
2023-06-05T04:38:11.910Z,1243.00
2023-06-05T04:39:11.925Z,1240.00
2023-06-05T04:40:11.942Z,1243.00
2023-06-05T04:41:11.926Z,1251.00
2023-06-05T04:42:15.536Z,1262.00
2023-06-05T04:43:11.934Z,1262.00
2023-06-05T04:44:11.928Z,1264.00
2023-06-05T04:45:11.945Z,1267.00
2023-06-05T04:46:11.969Z,1271.00
2023-06-05T04:47:11.914Z,1272.00
2023-06-05T04:48:11.939Z,1282.00
2023-06-05T04:49:11.897Z,1280.00
2023-06-05T04:50:11.901Z,1280.00
2023-06-05T04:51:11.879Z,1282.00
2023-06-05T04:52:11.882Z,1286.00
2023-06-05T04:53:11.906Z,1285.00
2023-06-05T04:54:11.877Z,1284.00
2023-06-05T04:55:12.719Z,1286.00
2023-06-05T04:56:12.118Z,1286.00
2023-06-05T04:57:12.096Z,1287.00
2023-06-05T04:58:12.083Z,1287.00
2023-06-05T04:59:12.075Z,1284.00
2023-06-05T05:00:12.067Z,1289.00
2023-06-05T05:01:12.085Z,1298.00
2023-06-05T05:02:12.178Z,1291.00
2023-06-05T05:03:12.123Z,1297.00
2023-06-05T05:04:12.178Z,1293.00
2023-06-05T05:05:12.147Z,1301.00
2023-06-05T05:06:12.150Z,1301.00
2023-06-05T05:07:12.185Z,1304.00
2023-06-05T05:08:12.199Z,1302.00
2023-06-05T05:09:12.214Z,1308.00
2023-06-05T05:10:12.221Z,1304.00
2023-06-05T05:11:12.249Z,1309.00
2023-06-05T05:12:12.236Z,1310.00
2023-06-05T05:13:12.267Z,1310.00
2023-06-05T05:14:12.274Z,1314.00
2023-06-05T05:15:12.292Z,1315.00
2023-06-05T05:16:12.329Z,1310.00
2023-06-05T05:17:12.338Z,1308.00
2023-06-05T05:18:12.332Z,1307.00
2023-06-05T05:19:12.390Z,1306.00
2023-06-05T05:20:12.381Z,1310.00
2023-06-05T05:21:12.418Z,1303.00
2023-06-05T05:22:12.429Z,1310.00
2023-06-05T05:23:12.442Z,1308.00
2023-06-05T05:24:12.470Z,1312.00
2023-06-05T05:25:12.523Z,1296.00
2023-06-05T05:26:12.556Z,1346.00
2023-06-05T05:27:12.583Z,1394.00
2023-06-05T05:28:12.604Z,1438.00
2023-06-05T05:29:12.585Z,1513.00
2023-06-05T05:30:12.630Z,1619.00
2023-06-05T05:31:12.824Z,1706.00
2023-06-05T05:32:12.767Z,1729.00
2023-06-05T05:33:12.704Z,1734.00
2023-06-05T05:34:12.707Z,1715.00
2023-06-05T05:35:12.726Z,1755.00
2023-06-05T05:36:12.756Z,1854.00
2023-06-05T05:37:12.809Z,1927.00
2023-06-05T05:38:12.847Z,1976.00
2023-06-05T05:39:12.871Z,1984.00
2023-06-05T05:40:12.881Z,1976.00
2023-06-05T05:41:12.900Z,1984.00
2023-06-05T05:42:12.922Z,2000.00
2023-06-05T05:43:12.953Z,2028.00
2023-06-05T05:44:13.019Z,1983.00
2023-06-05T05:45:13.053Z,1936.00
2023-06-05T05:46:13.096Z,1922.00
2023-06-05T05:47:13.189Z,1900.00
2023-06-05T05:48:13.057Z,1872.00
2023-06-05T05:49:13.093Z,1843.00
2023-06-05T05:50:13.167Z,1820.00
2023-06-05T05:51:13.230Z,1818.00
2023-06-05T05:52:13.285Z,1790.00
2023-06-05T05:53:13.330Z,1765.00
2023-06-05T05:54:13.358Z,1752.00
2023-06-05T05:55:15.132Z,1723.00
2023-06-05T05:56:13.430Z,1698.00
2023-06-05T05:57:13.464Z,1675.00
2023-06-05T05:58:13.465Z,1665.00
2023-06-05T05:59:13.491Z,1654.00
2023-06-05T06:00:13.587Z,1660.00
2023-06-05T06:01:13.526Z,1623.00
2023-06-05T06:02:13.583Z,1614.00
2023-06-05T06:03:13.628Z,1615.00
2023-06-05T06:04:13.588Z,1600.00
2023-06-05T06:05:13.690Z,1595.00
2023-06-05T06:06:13.599Z,1598.00
2023-06-05T06:07:13.558Z,1574.00
2023-06-05T06:08:13.564Z,1560.00
2023-06-05T06:09:13.555Z,1581.00
2023-06-05T06:10:13.570Z,1577.00
2023-06-05T06:11:13.578Z,1571.00
2023-06-05T06:12:13.580Z,1554.00
2023-06-05T06:13:13.578Z,1549.00
2023-06-05T06:14:13.597Z,1532.00
2023-06-05T06:15:13.592Z,1528.00
2023-06-05T06:16:13.590Z,1533.00
2023-06-05T06:17:13.582Z,1538.00
2023-06-05T06:18:13.683Z,1514.00
2023-06-05T06:19:13.623Z,1510.00
2023-06-05T06:20:13.601Z,1480.00
2023-06-05T06:21:13.582Z,1445.00
2023-06-05T06:22:13.619Z,1432.00
2023-06-05T06:23:13.581Z,1438.00
2023-06-05T06:24:13.593Z,1428.00
2023-06-05T06:25:13.609Z,1420.00
2023-06-05T06:26:13.594Z,1412.00
2023-06-05T06:28:13.590Z,1424.00
2023-06-05T06:29:13.580Z,1419.00
2023-06-05T06:30:13.592Z,1411.00
2023-06-05T06:31:13.604Z,1404.00
2023-06-05T06:32:13.706Z,1408.00
2023-06-05T06:33:13.553Z,1412.00
2023-06-05T06:34:13.540Z,1432.00
2023-06-05T06:35:13.532Z,1417.00
2023-06-05T06:36:13.553Z,1427.00
2023-06-05T06:37:13.712Z,1389.00
2023-06-05T06:38:13.514Z,1408.00
2023-06-05T06:39:13.487Z,1412.00
2023-06-05T06:40:13.504Z,1385.00
2023-06-05T06:41:13.492Z,1437.00
2023-06-05T06:42:13.726Z,1412.00
2023-06-05T06:43:13.473Z,1370.00
2023-06-05T06:44:13.452Z,1422.00
2023-06-05T06:45:13.510Z,1387.00
2023-06-05T06:46:13.430Z,1322.00
2023-06-05T06:47:13.468Z,1330.00
2023-06-05T06:48:13.523Z,1318.00
2023-06-05T06:49:13.503Z,1284.00
2023-06-05T06:50:13.414Z,1308.00
2023-06-05T06:51:13.409Z,1271.00
2023-06-05T06:52:13.404Z,1260.00
2023-06-05T06:53:13.400Z,1279.00
2023-06-05T06:54:13.397Z,1285.00
2023-06-05T06:55:13.391Z,1266.00
2023-06-05T06:56:13.370Z,1258.00
2023-06-05T06:57:13.381Z,1252.00
2023-06-05T06:58:13.364Z,1235.00
2023-06-05T06:59:13.353Z,1260.00
2023-06-05T07:00:13.347Z,1255.00
2023-06-05T07:01:13.427Z,1228.00
2023-06-05T07:02:13.383Z,1234.00
2023-06-05T07:03:13.377Z,1203.00
2023-06-05T07:04:13.326Z,1170.00
2023-06-05T07:05:13.314Z,1197.00
2023-06-05T07:06:13.309Z,1191.00
2023-06-05T07:07:13.317Z,1202.00
2023-06-05T07:08:13.326Z,1200.00
2023-06-05T07:09:13.295Z,1176.00
2023-06-05T07:10:13.295Z,1178.00
2023-06-05T07:11:13.270Z,1172.00
2023-06-05T07:12:13.270Z,1169.00
2023-06-05T07:13:13.277Z,1194.00
2023-06-05T07:14:13.276Z,1197.00
2023-06-05T07:15:13.273Z,1165.00
2023-06-05T07:16:13.290Z,1172.00
2023-06-05T07:17:13.263Z,1198.00
2023-06-05T07:18:13.238Z,1153.00
2023-06-05T07:19:13.255Z,1175.00
2023-06-05T07:20:13.266Z,1162.00
2023-06-05T07:21:13.228Z,1164.00
2023-06-05T07:22:13.215Z,1162.00
2023-06-05T07:23:13.219Z,1171.00
2023-06-05T07:24:13.365Z,1180.00
2023-06-05T07:25:13.204Z,1189.00
2023-06-05T07:26:13.203Z,1205.00
2023-06-05T07:27:13.256Z,1191.00
2023-06-05T07:28:13.182Z,1168.00
2023-06-05T07:29:13.179Z,1249.00
2023-06-05T07:30:13.152Z,1347.00
2023-06-05T07:31:13.226Z,1445.00
2023-06-05T07:32:13.251Z,1570.00
2023-06-05T07:33:29.194Z,1694.00
2023-06-05T07:34:14.313Z,1695.00
2023-06-05T07:35:13.278Z,1712.00
2023-06-05T07:36:13.257Z,1760.00
2023-06-05T07:37:13.327Z,1838.00
2023-06-05T07:38:13.250Z,1996.00
2023-06-05T07:39:13.255Z,2044.00
2023-06-05T07:40:13.243Z,2092.00
2023-06-05T07:41:13.217Z,2148.00
2023-06-05T07:42:14.472Z,2168.00
2023-06-05T07:43:13.197Z,2188.00
2023-06-05T07:44:13.230Z,2226.00
2023-06-05T07:45:13.266Z,2258.00
2023-06-05T07:46:13.356Z,2165.00
2023-06-05T07:47:13.769Z,2117.00
2023-06-05T07:48:13.372Z,2136.00
2023-06-05T07:49:13.381Z,2208.00
2023-06-05T07:50:13.431Z,2274.00
2023-06-05T07:51:13.476Z,2313.00
2023-06-05T07:52:13.762Z,2215.00
2023-06-05T07:53:13.546Z,2214.00
2023-06-05T07:54:13.578Z,2251.00
2023-06-05T07:55:13.564Z,2235.00
2023-06-05T07:56:13.607Z,2259.00
2023-06-05T07:57:13.745Z,2262.00
2023-06-05T07:58:13.662Z,2239.00
2023-06-05T07:59:13.685Z,2185.00
2023-06-05T08:00:13.717Z,2119.00
2023-06-05T08:01:13.746Z,2197.00
2023-06-05T08:02:14.295Z,2188.00
2023-06-05T08:03:14.009Z,2169.00
2023-06-05T08:04:14.159Z,2193.00
2023-06-05T08:05:13.874Z,2209.00
2023-06-05T08:06:13.888Z,2168.00
2023-06-05T08:07:14.245Z,2174.00
2023-06-05T08:08:13.913Z,2132.00
2023-06-05T08:09:13.933Z,2178.00
2023-06-05T08:10:13.950Z,2207.00
2023-06-05T08:11:13.953Z,2206.00
2023-06-05T08:12:13.957Z,2233.00
2023-06-05T08:13:13.959Z,2163.00
2023-06-05T08:14:13.966Z,2184.00
2023-06-05T08:15:13.976Z,2195.00
2023-06-05T08:16:13.979Z,2233.00
2023-06-05T08:17:14.080Z,2270.00
2023-06-05T08:18:13.968Z,2301.00
2023-06-05T08:19:13.979Z,2339.00
2023-06-05T08:20:13.955Z,2387.00
2023-06-05T08:21:13.951Z,2451.00
2023-06-05T08:22:14.249Z,2509.00
2023-06-05T08:23:13.966Z,2568.00
2023-06-05T08:24:13.965Z,2643.00
2023-06-05T08:25:14.030Z,2685.00
2023-06-05T08:26:14.042Z,2712.00
2023-06-05T08:27:14.109Z,2741.00
2023-06-05T08:28:14.140Z,2766.00
2023-06-05T08:29:14.186Z,2773.00
2023-06-05T08:30:14.232Z,2748.00
2023-06-05T08:31:14.307Z,2717.00
2023-06-05T08:32:14.368Z,2705.00
2023-06-05T08:33:14.392Z,2731.00
2023-06-05T08:34:14.458Z,2791.00
2023-06-05T08:35:14.522Z,2831.00
2023-06-05T08:36:14.616Z,2860.00
2023-06-05T08:37:14.756Z,2775.00
2023-06-05T08:38:14.716Z,2775.00
2023-06-05T08:39:14.778Z,2801.00
2023-06-05T08:40:14.832Z,2826.00
2023-06-05T08:41:14.940Z,2818.00
2023-06-05T08:42:15.254Z,2825.00
2023-06-05T08:43:15.026Z,2837.00
2023-06-05T08:44:15.084Z,2831.00
2023-06-05T08:45:15.146Z,2891.00
2023-06-05T08:46:15.254Z,2862.00
2023-06-05T08:47:15.800Z,2783.00
2023-06-05T08:48:15.363Z,2749.00
2023-06-05T08:49:15.406Z,2749.00
2023-06-05T08:50:15.474Z,2721.00
2023-06-05T08:51:15.537Z,2744.00
2023-06-05T08:52:15.586Z,2732.00
2023-06-05T08:53:17.809Z,2703.00
2023-06-05T08:54:15.640Z,2675.00
2023-06-05T08:55:15.664Z,2690.00
2023-06-05T08:56:15.619Z,2668.00
2023-06-05T08:57:15.620Z,2638.00
2023-06-05T08:58:15.629Z,2635.00
2023-06-05T08:59:15.622Z,2639.00
2023-06-05T09:00:15.591Z,2646.00
2023-06-05T09:01:15.632Z,2651.00
2023-06-05T09:02:15.768Z,2648.00
2023-06-05T09:03:15.593Z,2544.00
2023-06-05T09:04:15.576Z,2580.00
2023-06-05T09:05:15.557Z,2605.00
2023-06-05T09:06:15.584Z,2576.00
2023-06-05T09:07:15.773Z,2555.00
2023-06-05T09:08:15.550Z,2525.00
2023-06-05T09:09:15.537Z,2514.00
2023-06-05T09:10:15.542Z,2539.00
2023-06-05T09:11:15.535Z,2541.00
2023-06-05T09:12:15.782Z,2516.00
2023-06-05T09:13:15.504Z,2503.00
2023-06-05T09:14:15.505Z,2505.00
2023-06-05T09:15:15.500Z,2521.00
2023-06-05T09:16:15.522Z,2282.00
2023-06-05T09:17:15.517Z,1469.00
2023-06-05T09:18:15.522Z,1393.00
2023-06-05T09:19:15.492Z,1541.00
2023-06-05T09:20:15.482Z,1802.00
2023-06-05T09:21:15.475Z,1972.00
2023-06-05T09:22:15.814Z,2027.00
2023-06-05T09:23:25.150Z,2052.00
2023-06-05T09:24:16.555Z,2054.00
2023-06-05T09:25:15.442Z,2062.00
2023-06-05T09:26:15.424Z,2078.00
2023-06-05T09:27:15.429Z,1877.00
2023-06-05T09:28:15.436Z,1109.00
2023-06-05T09:29:15.417Z,929.00
2023-06-05T09:30:15.412Z,843.00
2023-06-05T09:31:15.421Z,783.00
2023-06-05T09:32:15.802Z,857.00
2023-06-05T09:33:15.382Z,911.00
2023-06-05T09:34:15.389Z,1335.00
2023-06-05T09:35:15.370Z,1561.00
2023-06-05T09:36:15.403Z,1689.00
2023-06-05T09:37:15.806Z,1781.00
2023-06-05T09:38:15.424Z,1798.00
2023-06-05T09:39:15.450Z,1930.00
2023-06-05T09:40:15.430Z,2019.00
2023-06-05T09:41:15.439Z,2004.00
2023-06-05T09:42:15.804Z,1973.00
2023-06-05T09:43:15.432Z,1995.00
2023-06-05T09:44:15.466Z,1987.00
2023-06-05T09:45:15.518Z,2025.00
2023-06-05T09:46:15.612Z,2060.00
2023-06-05T09:47:15.712Z,2108.00
2023-06-05T09:48:15.750Z,2180.00
2023-06-05T09:49:15.725Z,2672.00
2023-06-05T09:50:15.837Z,2531.00
2023-06-05T09:51:15.880Z,2401.00
2023-06-05T09:52:15.920Z,2369.00
2023-06-05T09:53:15.937Z,2323.00
2023-06-05T09:54:15.983Z,2299.00
2023-06-05T09:55:16.044Z,2284.00
2023-06-05T09:56:16.105Z,2313.00
2023-06-05T09:57:16.365Z,2324.00
2023-06-05T09:58:16.185Z,2320.00
2023-06-05T09:59:16.229Z,2327.00
2023-06-05T10:00:17.199Z,2330.00
2023-06-05T10:01:16.351Z,2285.00
2023-06-05T10:02:16.337Z,2275.00
2023-06-05T10:03:16.399Z,2178.00
2023-06-05T10:04:16.476Z,2097.00
2023-06-05T10:05:16.479Z,2152.00
2023-06-05T10:06:19.955Z,2026.00
2023-06-05T10:07:16.543Z,2066.00
2023-06-05T10:08:16.534Z,2074.00
2023-06-05T10:09:16.509Z,2097.00
2023-06-05T10:10:16.538Z,2127.00
2023-06-05T10:11:16.510Z,2152.00
2023-06-05T10:12:16.502Z,2062.00
2023-06-05T10:13:18.769Z,2063.00
2023-06-05T10:14:16.487Z,2065.00
2023-06-05T10:15:16.482Z,2078.00
2023-06-05T10:16:25.576Z,2097.00
2023-06-05T10:17:17.502Z,2068.00
2023-06-05T10:18:16.478Z,2082.00
2023-06-05T10:19:16.450Z,2110.00
2023-06-05T10:20:17.405Z,2148.00
2023-06-05T10:21:16.428Z,2212.00
2023-06-05T10:22:16.848Z,1854.00
2023-06-05T10:23:16.411Z,1350.00
2023-06-05T10:24:16.445Z,1046.00
2023-06-05T10:25:16.410Z,655.00
2023-06-05T10:26:16.386Z,687.00
2023-06-05T10:27:16.381Z,808.00
2023-06-05T10:28:16.375Z,989.00
2023-06-05T10:29:16.380Z,1147.00
2023-06-05T10:30:16.482Z,1245.00
2023-06-05T10:31:16.400Z,1371.00
2023-06-05T10:32:16.401Z,1462.00
2023-06-05T10:33:16.339Z,1251.00
2023-06-05T10:34:16.348Z,1148.00
2023-06-05T10:35:16.329Z,1322.00
2023-06-05T10:36:16.317Z,1428.00
2023-06-05T10:37:16.313Z,1538.00
2023-06-05T10:38:16.303Z,1614.00
2023-06-05T10:39:16.306Z,1630.00
2023-06-05T10:40:16.311Z,1669.00
2023-06-05T10:41:16.302Z,1752.00
2023-06-05T10:42:16.284Z,1791.00
2023-06-05T10:43:16.289Z,1860.00
2023-06-05T10:44:16.284Z,1920.00
2023-06-05T10:45:16.371Z,1976.00
2023-06-05T10:46:16.536Z,2023.00
2023-06-05T10:47:16.305Z,2076.00
2023-06-05T10:48:16.262Z,2116.00
2023-06-05T10:49:16.251Z,2134.00
2023-06-05T10:50:16.246Z,2125.00
2023-06-05T10:51:16.249Z,2130.00
2023-06-05T10:52:16.219Z,2114.00
2023-06-05T10:53:16.224Z,2114.00
2023-06-05T10:54:16.219Z,2115.00
2023-06-05T10:55:16.227Z,2110.00
2023-06-05T10:56:16.204Z,2112.00
2023-06-05T10:57:16.333Z,2105.00
2023-06-05T10:58:16.508Z,2095.00
2023-06-05T10:59:16.176Z,2119.00
2023-06-05T11:00:16.176Z,2047.00
2023-06-05T11:01:16.185Z,2062.00
2023-06-05T11:02:16.344Z,2080.00
2023-06-05T11:03:16.183Z,2079.00
2023-06-05T11:04:16.181Z,2100.00
2023-06-05T11:05:16.191Z,2126.00
2023-06-05T11:06:16.125Z,2134.00
2023-06-05T11:07:16.333Z,2125.00
2023-06-05T11:08:16.146Z,2139.00
2023-06-05T11:09:16.097Z,2043.00
2023-06-05T11:10:16.108Z,2098.00
2023-06-05T11:11:16.140Z,2096.00
2023-06-05T11:12:16.199Z,1986.00
2023-06-05T11:13:16.207Z,1942.00
2023-06-05T11:14:16.234Z,1922.00
2023-06-05T11:15:16.464Z,1949.00
2023-06-05T11:16:16.378Z,1959.00
2023-06-05T11:17:17.622Z,1934.00
2023-06-05T11:18:16.427Z,1849.00
2023-06-05T11:19:16.457Z,1644.00
2023-06-05T11:20:16.544Z,1500.00
2023-06-05T11:21:16.567Z,1327.00
2023-06-05T11:22:16.832Z,1231.00
2023-06-05T11:23:16.672Z,1242.00
2023-06-05T11:24:16.736Z,1134.00
2023-06-05T11:25:16.860Z,985.00
2023-06-05T11:26:16.851Z,1036.00
2023-06-05T11:27:16.841Z,1019.00
2023-06-05T11:28:16.837Z,991.00
2023-06-05T11:29:16.926Z,822.00
2023-06-05T11:30:19.723Z,805.00
2023-06-05T11:31:17.869Z,727.00
2023-06-05T11:32:16.868Z,755.00
2023-06-05T11:33:17.179Z,773.00
2023-06-05T11:34:16.817Z,684.00
2023-06-05T11:35:16.809Z,702.00
2023-06-05T11:36:16.810Z,607.00
2023-06-05T11:37:16.786Z,583.00
2023-06-05T11:38:17.811Z,587.00
2023-06-05T11:39:16.773Z,583.00
2023-06-05T11:40:16.789Z,551.00
2023-06-05T11:41:16.765Z,518.00
2023-06-05T11:42:16.743Z,519.00
2023-06-05T11:43:16.758Z,508.00
2023-06-05T11:44:16.728Z,510.00
2023-06-05T11:45:16.734Z,511.00
2023-06-05T11:46:16.785Z,563.00
2023-06-05T11:47:16.761Z,522.00
2023-06-05T11:48:16.721Z,509.00
2023-06-05T11:49:16.690Z,504.00
2023-06-05T11:50:16.699Z,498.00
2023-06-05T11:51:16.686Z,512.00
2023-06-05T11:52:16.677Z,521.00
2023-06-05T11:53:16.666Z,552.00
2023-06-05T11:54:16.655Z,559.00
2023-06-05T11:55:16.732Z,568.00
2023-06-05T11:56:16.716Z,564.00
2023-06-05T11:57:16.648Z,593.00
2023-06-05T11:58:16.635Z,597.00
2023-06-05T11:59:16.639Z,560.00
2023-06-05T12:00:16.648Z,567.00
2023-06-05T12:01:16.622Z,549.00
2023-06-05T12:02:16.680Z,595.00
2023-06-05T12:03:16.880Z,587.00
2023-06-05T12:04:17.597Z,597.00
2023-06-05T12:05:16.602Z,628.00
2023-06-05T12:06:16.594Z,740.00
2023-06-05T12:07:16.596Z,920.00
2023-06-05T12:08:16.562Z,1055.00